Time;durP1;ratioP1;P1;durP2;ratioP2;P2;SDS_P1;SDS_P2;PMS_P1;PMS_P2;Temp;Humidity;BMP_temperature;BMP_pressure;BME280_temperature;BME280_humidity;BME280_pressure;Samples;Min_cycle;Max_cycle;Signal;HPM_P1;HPM_P2
2022/07/27 00:01:40;;;;;;;1.03;1.00;;;18.60;66.20;;;;;;5095664;28;21196;-81
2022/07/27 00:04:07;;;;;;;0.87;0.87;;;18.60;66.40;;;;;;5101770;28;20625;-81
2022/07/27 00:06:34;;;;;;;0.73;0.73;;;18.60;67.00;;;;;;5098417;28;20726;-81
2022/07/27 00:09:01;;;;;;;1.57;1.37;;;18.70;66.60;;;;;;5095099;28;20620;-80
2022/07/27 00:11:29;;;;;;;1.20;1.20;;;18.60;66.60;;;;;;5092741;28;21014;-81
2022/07/27 00:13:58;;;;;;;1.33;1.10;;;18.50;66.80;;;;;;5096556;28;20635;-81
2022/07/27 00:16:26;;;;;;;2.07;1.20;;;18.50;66.70;;;;;;5095841;28;20628;-82
2022/07/27 00:18:54;;;;;;;1.37;1.27;;;18.50;67.60;;;;;;5104411;28;20642;-81
2022/07/27 00:21:25;;;;;;;1.30;1.20;;;18.40;68.50;;;;;;5102820;28;20642;-81
2022/07/27 00:23:53;;;;;;;0.97;0.97;;;18.50;68.70;;;;;;5092312;28;20630;-82
2022/07/27 00:26:21;;;;;;;1.60;1.50;;;18.60;68.10;;;;;;5091269;28;21194;-81
2022/07/27 00:28:48;;;;;;;1.93;1.77;;;18.60;67.90;;;;;;5101141;28;20624;-81
2022/07/27 00:31:17;;;;;;;1.30;1.20;;;18.70;67.40;;;;;;5101076;28;20632;-81
2022/07/27 00:33:45;;;;;;;1.77;1.20;;;18.70;68.00;;;;;;5103480;28;20711;-80
2022/07/27 00:36:13;;;;;;;1.50;1.40;;;18.60;69.20;;;;;;5095344;28;20666;-81
2022/07/27 00:38:41;;;;;;;1.17;1.03;;;18.60;70.10;;;;;;5097506;28;20620;-81
2022/07/27 00:41:08;;;;;;;1.30;1.20;;;18.20;71.50;;;;;;5096626;28;21039;-81
2022/07/27 00:43:51;;;;;;;1.00;1.00;;;18.40;70.70;;;;;;5100128;28;20678;-81
2022/07/27 00:46:19;;;;;;;1.20;1.07;;;18.30;71.20;;;;;;5100153;28;21026;-81
2022/07/27 00:48:47;;;;;;;1.10;1.00;;;18.30;70.30;;;;;;5106517;28;20634;-81
2022/07/27 00:51:16;;;;;;;1.73;1.40;;;18.10;72.70;;;;;;5094012;28;20832;-81
2022/07/27 00:53:43;;;;;;;1.60;1.50;;;18.20;71.10;;;;;;5098106;28;20659;-81
2022/07/27 00:56:11;;;;;;;1.47;1.30;;;18.50;71.60;;;;;;5097413;28;20616;-81
2022/07/27 00:58:39;;;;;;;1.40;1.30;;;18.20;70.90;;;;;;5090729;28;20619;-81
2022/07/27 01:01:06;;;;;;;1.30;1.20;;;18.30;71.60;;;;;;5095090;28;21221;-81
2022/07/27 01:03:34;;;;;;;1.23;1.13;;;18.30;71.10;;;;;;5092341;28;21204;-81
2022/07/27 01:06:01;;;;;;;1.00;0.90;;;18.30;70.60;;;;;;5094161;28;20739;-81
2022/07/27 01:08:28;;;;;;;1.27;1.07;;;18.30;70.50;;;;;;5097802;28;20632;-81
2022/07/27 01:10:56;;;;;;;1.50;1.40;;;18.40;70.30;;;;;;5099154;28;20959;-81
2022/07/27 01:13:24;;;;;;;1.43;1.33;;;18.40;70.00;;;;;;5094698;28;21018;-81
2022/07/27 01:15:55;;;;;;;1.40;1.30;;;18.40;69.90;;;;;;5095254;28;21185;-81
2022/07/27 01:18:30;;;;;;;2.47;1.60;;;18.40;70.50;;;;;;5094659;28;20635;-81
2022/07/27 01:21:00;;;;;;;1.97;1.60;;;18.40;69.70;;;;;;5087619;28;20617;-81
2022/07/27 01:23:31;;;;;;;2.43;2.23;;;18.40;70.60;;;;;;5085581;28;20616;-81
2022/07/27 01:25:58;;;;;;;2.37;1.53;;;18.40;71.20;;;;;;5087172;28;20619;-81
2022/07/27 01:28:26;;;;;;;1.73;1.63;;;18.40;72.40;;;;;;5087262;28;20647;-80
2022/07/27 01:30:54;;;;;;;1.30;1.20;;;18.30;71.00;;;;;;5086834;28;20608;-80
2022/07/27 01:33:25;;;;;;;2.00;1.87;;;18.20;71.30;;;;;;5085052;28;21054;-81
2022/07/27 01:35:55;;;;;;;1.53;1.27;;;18.00;72.60;;;;;;5087650;28;20620;-81
2022/07/27 01:38:23;;;;;;;2.07;1.90;;;17.90;72.00;;;;;;5087360;28;21016;-81
2022/07/27 01:40:52;;;;;;;1.77;1.67;;;17.90;72.40;;;;;;5091859;28;21089;-81
2022/07/27 01:43:21;;;;;;;1.53;1.43;;;17.90;72.90;;;;;;5106669;28;20726;-81
2022/07/27 01:45:49;;;;;;;1.93;1.83;;;17.90;71.90;;;;;;5107398;28;20619;-81
2022/07/27 01:48:17;;;;;;;1.70;1.60;;;18.00;72.40;;;;;;5087948;28;20728;-80
2022/07/27 01:50:44;;;;;;;2.23;1.67;;;18.00;71.80;;;;;;5088770;28;20628;-80
2022/07/27 01:53:12;;;;;;;1.83;1.70;;;18.00;71.70;;;;;;5090672;28;20659;-81
2022/07/27 01:55:39;;;;;;;1.27;1.20;;;18.30;73.80;;;;;;5090849;28;20612;-81
2022/07/27 01:58:09;;;;;;;1.80;1.70;;;18.00;72.40;;;;;;5090086;28;20732;-81
2022/07/27 02:00:36;;;;;;;2.67;2.10;;;18.00;72.80;;;;;;5091111;28;20661;-81
2022/07/27 02:03:04;;;;;;;1.90;1.70;;;18.00;72.80;;;;;;5091009;28;20654;-81
2022/07/27 02:05:31;;;;;;;1.67;1.57;;;17.90;73.00;;;;;;5091135;28;20619;-81
2022/07/27 02:07:58;;;;;;;2.73;2.20;;;17.90;73.20;;;;;;5091088;28;20609;-80
2022/07/27 02:10:25;;;;;;;1.70;1.60;;;18.00;72.50;;;;;;5090618;28;20600;-80
2022/07/27 02:12:52;;;;;;;2.50;1.70;;;18.00;72.10;;;;;;5090317;28;20786;-80
2022/07/27 02:15:23;;;;;;;1.60;1.50;;;18.10;72.20;;;;;;5090891;28;20609;-80
2022/07/27 02:17:50;;;;;;;1.63;1.53;;;18.00;73.30;;;;;;5091036;28;21042;-80
2022/07/27 02:20:19;;;;;;;1.40;1.30;;;17.90;73.90;;;;;;5090949;28;20632;-80
2022/07/27 02:22:47;;;;;;;1.40;1.30;;;17.90;74.40;;;;;;5089709;28;20620;-81
2022/07/27 02:25:16;;;;;;;1.70;1.60;;;17.80;75.10;;;;;;5090543;28;20648;-81
2022/07/27 02:27:43;;;;;;;1.90;1.70;;;17.60;74.80;;;;;;5090399;28;20673;-81
2022/07/27 02:30:12;;;;;;;1.50;1.40;;;17.60;75.40;;;;;;5090640;28;20620;-81
2022/07/27 02:32:42;;;;;;;1.83;1.73;;;17.50;75.10;;;;;;5089878;28;20666;-81
2022/07/27 02:35:09;;;;;;;1.60;1.50;;;17.40;76.00;;;;;;5109264;28;20612;-81
2022/07/27 02:37:36;;;;;;;2.30;1.87;;;17.40;75.30;;;;;;5110785;28;20723;-80
2022/07/27 02:40:04;;;;;;;2.43;2.23;;;17.50;76.30;;;;;;5110827;28;20588;-81
2022/07/27 02:42:31;;;;;;;2.20;2.10;;;17.50;76.40;;;;;;5110227;28;20626;-81
2022/07/27 02:44:58;;;;;;;3.57;1.70;;;17.60;75.50;;;;;;5110998;28;20736;-80
2022/07/27 02:47:24;;;;;;;1.10;1.00;;;17.60;75.40;;;;;;5098880;28;21096;-80
2022/07/27 02:49:53;;;;;;;1.70;1.60;;;17.60;76.70;;;;;;5089831;28;20617;-81
2022/07/27 02:52:19;;;;;;;1.57;1.40;;;17.60;77.30;;;;;;5090457;28;20612;-81
2022/07/27 02:54:46;;;;;;;2.47;2.27;;;17.60;77.70;;;;;;5090338;28;20731;-80
2022/07/27 02:57:13;;;;;;;2.37;1.90;;;17.50;77.50;;;;;;5089236;28;20956;-80
2022/07/27 02:59:40;;;;;;;2.00;1.90;;;17.40;77.90;;;;;;5089835;28;20731;-81
2022/07/27 03:02:07;;;;;;;2.00;1.90;;;17.40;78.00;;;;;;5089290;28;20619;-81
2022/07/27 03:04:34;;;;;;;2.50;2.30;;;17.40;77.80;;;;;;5088901;28;20647;-81
2022/07/27 03:07:02;;;;;;;1.47;1.33;;;17.40;77.70;;;;;;5090237;28;20634;-81
2022/07/27 03:09:29;;;;;;;1.63;1.50;;;17.40;78.40;;;;;;5089821;28;20628;-81
2022/07/27 03:11:56;;;;;;;1.73;1.63;;;17.40;77.90;;;;;;5089803;28;20708;-80
2022/07/27 03:14:23;;;;;;;1.47;1.37;;;17.50;78.60;;;;;;5089387;28;20763;-80
2022/07/27 03:16:50;;;;;;;2.53;1.80;;;17.60;76.70;;;;;;5089488;28;21054;-80
2022/07/27 03:19:16;;;;;;;2.27;2.07;;;17.80;75.90;;;;;;5089545;28;20628;-81
2022/07/27 03:21:43;;;;;;;1.80;1.63;;;17.70;77.60;;;;;;5089803;28;20719;-81
2022/07/27 03:24:11;;;;;;;1.97;1.77;;;17.50;78.10;;;;;;5089342;28;20712;-81
2022/07/27 03:26:38;;;;;;;2.53;1.40;;;17.40;78.50;;;;;;5089857;28;20674;-81
2022/07/27 03:29:05;;;;;;;1.97;1.77;;;17.10;79.00;;;;;;5089106;28;20600;-80
2022/07/27 03:31:32;;;;;;;1.67;1.57;;;16.80;80.00;;;;;;5089386;28;20628;-81
2022/07/27 03:33:59;;;;;;;2.50;1.63;;;16.90;80.60;;;;;;5097963;28;21329;-80
2022/07/27 03:36:26;;;;;;;2.07;1.53;;;16.90;80.60;;;;;;5109774;28;20758;-81
2022/07/27 03:38:52;;;;;;;2.00;1.90;;;16.90;80.70;;;;;;5109908;28;21039;-81
2022/07/27 03:41:21;;;;;;;2.43;2.23;;;17.00;81.50;;;;;;5109443;28;20655;-80
2022/07/27 03:43:48;;;;;;;1.53;1.43;;;17.00;81.00;;;;;;5109531;28;21232;-81
2022/07/27 03:46:14;;;;;;;1.93;1.83;;;16.90;80.60;;;;;;5106655;28;20715;-81
2022/07/27 03:48:41;;;;;;;1.60;1.50;;;16.90;81.10;;;;;;5089511;28;20622;-80
2022/07/27 03:51:08;;;;;;;3.17;2.23;;;16.90;82.20;;;;;;5089155;28;20652;-81
2022/07/27 03:53:35;;;;;;;2.37;2.17;;;16.80;82.30;;;;;;5088791;28;20659;-81
2022/07/27 03:56:02;;;;;;;2.30;2.10;;;16.80;82.40;;;;;;5089040;28;21031;-81
2022/07/27 03:58:30;;;;;;;2.00;1.80;;;16.70;82.50;;;;;;5087528;28;20612;-81
2022/07/27 04:00:57;;;;;;;2.63;2.10;;;16.70;83.00;;;;;;5088767;28;20719;-81
2022/07/27 04:03:24;;;;;;;2.30;1.80;;;16.70;82.80;;;;;;5088352;28;20982;-81
2022/07/27 04:05:51;;;;;;;1.83;1.40;;;16.70;83.60;;;;;;5088670;28;20657;-80
2022/07/27 04:08:20;;;;;;;1.60;1.50;;;16.70;83.40;;;;;;5088182;28;20991;-81
2022/07/27 04:10:47;;;;;;;2.20;2.00;;;16.70;84.20;;;;;;5087749;28;21034;-80
2022/07/27 04:13:14;;;;;;;1.93;1.83;;;16.70;83.70;;;;;;5087741;28;20651;-80
2022/07/27 04:15:43;;;;;;;1.60;1.50;;;16.60;83.60;;;;;;5087736;28;21119;-80
2022/07/27 04:18:09;;;;;;;2.83;2.43;;;16.50;83.90;;;;;;5088808;28;20770;-80
2022/07/27 04:20:36;;;;;;;4.30;1.43;;;16.50;84.50;;;;;;5089430;28;20624;-80
2022/07/27 04:23:03;;;;;;;2.30;2.10;;;16.60;84.90;;;;;;5088840;28;20619;-80
2022/07/27 04:25:30;;;;;;;1.73;1.63;;;16.50;84.60;;;;;;5088926;28;20697;-81
2022/07/27 04:27:57;;;;;;;2.00;1.87;;;16.80;84.10;;;;;;5087683;28;20601;-80
2022/07/27 04:30:24;;;;;;;1.77;1.67;;;16.60;84.30;;;;;;5095651;28;21189;-80
2022/07/27 04:32:53;;;;;;;1.90;1.70;;;16.80;84.40;;;;;;5103806;28;20616;-80
2022/07/27 04:35:20;;;;;;;3.13;2.67;;;16.80;84.80;;;;;;5096912;28;20620;-80
2022/07/27 04:37:47;;;;;;;2.13;1.97;;;16.80;85.30;;;;;;5088959;28;20680;-81
2022/07/27 04:40:14;;;;;;;2.20;1.90;;;16.80;84.60;;;;;;5088183;28;21052;-81
2022/07/27 04:42:41;;;;;;;2.00;1.90;;;16.90;85.00;;;;;;5108043;28;20616;-81
2022/07/27 04:45:09;;;;;;;1.60;1.50;;;16.80;86.50;;;;;;5108874;28;21040;-81
2022/07/27 04:47:36;;;;;;;2.40;1.90;;;16.70;85.90;;;;;;5108633;28;20685;-80
2022/07/27 04:50:05;;;;;;;1.60;1.50;;;16.90;86.30;;;;;;5108575;28;20696;-80
2022/07/27 04:52:32;;;;;;;2.37;2.27;;;17.00;85.80;;;;;;5107998;28;20969;-81
2022/07/27 04:54:59;;;;;;;1.70;1.60;;;17.00;85.40;;;;;;5100803;28;20656;-80
2022/07/27 04:57:26;;;;;;;2.87;2.67;;;17.10;85.40;;;;;;5088235;28;20621;-80
2022/07/27 04:59:52;;;;;;;2.63;2.30;;;17.20;85.30;;;;;;5088318;28;20617;-80
2022/07/27 05:02:19;;;;;;;2.30;2.10;;;17.20;85.00;;;;;;5086000;28;20707;-81
2022/07/27 05:04:46;;;;;;;1.90;1.80;;;17.40;84.30;;;;;;5085608;28;20687;-81
2022/07/27 05:07:14;;;;;;;1.60;1.50;;;17.40;84.90;;;;;;5101010;28;20624;-81
2022/07/27 05:09:42;;;;;;;2.67;2.33;;;17.40;84.00;;;;;;5093453;27;20628;-83
2022/07/27 05:12:12;;;;;;;4.27;2.30;;;17.40;85.10;;;;;;5095865;28;20671;-84
2022/07/27 05:14:39;;;;;;;1.87;1.67;;;17.50;84.50;;;;;;5094166;28;20667;-83
2022/07/27 05:17:06;;;;;;;2.37;2.13;;;;;;;;;;5098389;28;20657;-83
2022/07/27 05:19:33;;;;;;;2.37;2.17;;;17.40;84.00;;;;;;5102662;28;20613;-83
2022/07/27 05:22:00;;;;;;;2.80;2.60;;;17.40;84.70;;;;;;5094138;28;20728;-83
2022/07/27 05:24:28;;;;;;;2.57;2.10;;;17.40;84.60;;;;;;5088968;28;20677;-83
2022/07/27 05:26:55;;;;;;;2.57;2.10;;;17.50;84.50;;;;;;5094519;28;20636;-83
2022/07/27 05:29:24;;;;;;;2.07;1.97;;;17.60;84.50;;;;;;5097228;28;20785;-82
2022/07/27 05:31:51;;;;;;;2.33;2.13;;;17.70;83.60;;;;;;5099652;28;20612;-83
2022/07/27 05:34:18;;;;;;;3.30;2.07;;;17.70;83.70;;;;;;5093532;28;20771;-82
2022/07/27 05:36:45;;;;;;;2.87;2.27;;;17.70;83.70;;;;;;5102381;28;20719;-82
2022/07/27 05:39:12;;;;;;;1.77;1.67;;;17.60;84.00;;;;;;5097612;28;20680;-82
2022/07/27 05:41:40;;;;;;;3.53;2.23;;;17.60;84.80;;;;;;5095881;28;20609;-82
2022/07/27 05:44:07;;;;;;;1.80;1.70;;;17.70;84.80;;;;;;5103823;28;20672;-82
2022/07/27 05:46:35;;;;;;;2.20;2.00;;;17.70;85.50;;;;;;5107517;28;20634;-83
2022/07/27 05:49:02;;;;;;;1.80;1.67;;;17.70;84.70;;;;;;5095025;28;20679;-83
2022/07/27 05:51:30;;;;;;;2.03;1.83;;;17.80;84.50;;;;;;5105541;28;20636;-83
2022/07/27 05:53:57;;;;;;;2.90;2.20;;;17.80;83.70;;;;;;5099361;28;20655;-82
2022/07/27 05:56:24;;;;;;;2.33;2.13;;;17.90;84.20;;;;;;5088308;28;20709;-83
2022/07/27 05:58:52;;;;;;;2.27;2.10;;;17.90;83.20;;;;;;5091068;28;20664;-82
2022/07/27 06:01:19;;;;;;;1.63;1.53;;;18.00;83.20;;;;;;5106450;28;20719;-82
2022/07/27 06:03:46;;;;;;;1.90;1.80;;;18.20;82.30;;;;;;5092559;28;21578;-82
2022/07/27 06:08:57;;;;;;;2.73;2.00;;;17.90;82.70;;;;;;5095979;28;20623;-82
2022/07/27 06:11:24;;;;;;;2.40;2.20;;;18.00;83.40;;;;;;5092070;28;20621;-82
2022/07/27 06:13:52;;;;;;;2.40;2.20;;;17.90;83.50;;;;;;5097991;28;20747;-82
2022/07/27 06:16:19;;;;;;;3.40;2.27;;;17.90;84.00;;;;;;5091230;28;20624;-81
2022/07/27 06:18:46;;;;;;;2.70;2.40;;;18.10;84.00;;;;;;5092945;28;21311;-80
2022/07/27 06:21:13;;;;;;;2.07;1.87;;;18.00;84.40;;;;;;5096427;28;21019;-80
2022/07/27 06:23:40;;;;;;;3.47;3.17;;;18.20;83.50;;;;;;5086486;28;20643;-80
2022/07/27 06:26:07;;;;;;;2.73;2.50;;;18.30;82.80;;;;;;5097430;28;20636;-81
2022/07/27 06:28:34;;;;;;;2.70;2.40;;;18.40;82.70;;;;;;5093483;28;21259;-81
2022/07/27 06:31:03;;;;;;;2.30;2.10;;;18.50;83.60;;;;;;5089079;28;20635;-81
2022/07/27 06:33:30;;;;;;;3.90;2.50;;;18.50;82.80;;;;;;5095054;28;21192;-81
2022/07/27 06:35:59;;;;;;;3.40;2.57;;;18.40;82.90;;;;;;5106008;28;20703;-81
2022/07/27 06:38:26;;;;;;;2.33;2.13;;;18.40;83.90;;;;;;5100208;28;20972;-81
2022/07/27 06:40:53;;;;;;;2.50;2.30;;;18.50;83.20;;;;;;5095840;28;20630;-80
2022/07/27 06:43:21;;;;;;;3.27;2.57;;;18.60;83.50;;;;;;5109182;28;21216;-81
2022/07/27 06:45:48;;;;;;;2.40;2.20;;;18.70;83.20;;;;;;5110495;28;20658;-81
2022/07/27 06:48:17;;;;;;;2.53;2.30;;;18.90;82.60;;;;;;5096682;28;20668;-81
2022/07/27 06:50:44;;;;;;;3.33;2.90;;;19.00;82.20;;;;;;5099384;28;20650;-80
2022/07/27 06:53:10;;;;;;;3.17;2.87;;;19.20;81.80;;;;;;5100387;28;21031;-81
2022/07/27 06:55:37;;;;;;;2.30;2.10;;;19.30;80.70;;;;;;5089400;28;20707;-81
2022/07/27 06:58:07;;;;;;;2.20;2.00;;;19.40;79.30;;;;;;5089234;28;20648;-81
2022/07/27 07:00:34;;;;;;;2.87;2.67;;;19.30;80.60;;;;;;5089366;28;20616;-81
2022/07/27 07:03:03;;;;;;;3.23;2.13;;;19.30;81.10;;;;;;5089767;28;20636;-81
2022/07/27 07:05:33;;;;;;;2.50;2.30;;;19.40;80.30;;;;;;5097391;28;20633;-81
2022/07/27 07:08:01;;;;;;;2.63;2.43;;;19.70;79.50;;;;;;5107534;28;20640;-80
2022/07/27 07:10:28;;;;;;;4.13;2.77;;;19.70;79.10;;;;;;5099226;28;20651;-82
2022/07/27 07:12:55;;;;;;;2.77;2.57;;;19.60;77.80;;;;;;5090016;28;21221;-81
2022/07/27 07:15:22;;;;;;;2.27;2.07;;;19.90;78.40;;;;;;5093942;28;21069;-80
2022/07/27 07:17:49;;;;;;;2.33;2.10;;;19.40;79.50;;;;;;5103823;28;20627;-81
2022/07/27 07:20:16;;;;;;;2.20;2.00;;;19.60;80.50;;;;;;5108890;28;20632;-81
2022/07/27 07:22:44;;;;;;;3.00;2.73;;;19.80;79.00;;;;;;5096238;28;20960;-82
2022/07/27 07:25:11;;;;;;;4.50;2.60;;;20.00;77.40;;;;;;5107063;28;20985;-81
2022/07/27 07:27:38;;;;;;;2.37;2.17;;;20.10;76.50;;;;;;5101990;28;20627;-82
2022/07/27 07:30:06;;;;;;;3.90;2.40;;;20.20;75.90;;;;;;5110868;28;20611;-80
2022/07/27 07:32:33;;;;;;;2.80;2.60;;;20.00;77.60;;;;;;5103185;28;20715;-81
2022/07/27 07:35:02;;;;;;;2.30;1.97;;;20.00;78.10;;;;;;5107569;28;20655;-82
2022/07/27 07:37:29;;;;;;;2.47;2.27;;;20.10;77.40;;;;;;5101734;28;20635;-82
2022/07/27 07:39:57;;;;;;;2.80;2.40;;;20.40;76.50;;;;;;5096137;28;20714;-81
2022/07/27 07:42:24;;;;;;;2.70;2.40;;;20.70;76.00;;;;;;5096441;28;20617;-82
2022/07/27 07:44:51;;;;;;;2.20;2.10;;;20.70;77.10;;;;;;5099710;28;20620;-81
2022/07/27 07:47:18;;;;;;;2.70;2.50;;;20.80;75.60;;;;;;5092544;28;20652;-82
2022/07/27 07:49:45;;;;;;;3.13;2.43;;;20.80;75.60;;;;;;5093911;28;20636;-81
2022/07/27 07:52:12;;;;;;;3.67;2.50;;;20.80;76.00;;;;;;5102552;28;20659;-80
2022/07/27 07:54:39;;;;;;;2.50;2.30;;;20.40;75.60;;;;;;5096960;28;20666;-83
2022/07/27 07:57:08;;;;;;;3.47;3.03;;;20.20;76.80;;;;;;5103373;28;20660;-83
2022/07/27 07:59:34;;;;;;;2.70;2.50;;;20.20;76.70;;;;;;5103322;28;20635;-83
2022/07/27 08:02:02;;;;;;;1.83;1.73;;;20.20;76.60;;;;;;5099474;28;20652;-83
2022/07/27 08:04:29;;;;;;;2.53;2.30;;;20.20;77.30;;;;;;5108843;28;20635;-83
2022/07/27 08:06:56;;;;;;;4.17;3.23;;;20.30;75.90;;;;;;5109509;28;20667;-83
2022/07/27 08:09:25;;;;;;;2.60;2.13;;;20.00;75.90;;;;;;5110056;28;20956;-84
2022/07/27 08:11:53;;;;;;;2.70;2.50;;;20.10;76.90;;;;;;5099961;28;20735;-83
2022/07/27 08:14:22;;;;;;;2.40;2.20;;;20.30;76.30;;;;;;5088816;28;20648;-83
2022/07/27 08:16:49;;;;;;;2.60;2.40;;;20.20;75.90;;;;;;5088618;28;20632;-83
2022/07/27 08:19:15;;;;;;;2.60;2.40;;;20.40;76.50;;;;;;5101507;28;20712;-83
2022/07/27 08:21:43;;;;;;;2.03;1.93;;;20.30;76.00;;;;;;5103656;28;20747;-83
2022/07/27 08:24:10;;;;;;;2.27;2.17;;;20.20;76.30;;;;;;5105486;28;20740;-83
2022/07/27 08:26:37;;;;;;;2.43;2.23;;;20.40;77.30;;;;;;5088044;28;20746;-83
2022/07/27 08:29:04;;;;;;;2.97;2.70;;;20.30;76.40;;;;;;5089318;28;20617;-83
2022/07/27 08:31:32;;;;;;;4.27;2.47;;;20.60;76.50;;;;;;5088537;28;20635;-82
2022/07/27 08:33:59;;;;;;;2.97;2.77;;;20.70;75.70;;;;;;5098003;28;20724;-84
2022/07/27 08:36:27;;;;;;;2.60;2.40;;;20.70;75.70;;;;;;5089614;28;20676;-83
2022/07/27 08:38:53;;;;;;;3.13;2.93;;;20.70;75.00;;;;;;5089891;28;20656;-83
2022/07/27 08:41:24;;;;;;;3.17;2.60;;;21.00;74.40;;;;;;5097507;28;20728;-81
2022/07/27 08:43:52;;;;;;;3.03;2.70;;;20.90;74.00;;;;;;5108593;28;20608;-82
2022/07/27 08:46:19;;;;;;;3.03;2.83;;;21.00;75.00;;;;;;5088360;28;20623;-83
2022/07/27 08:48:48;;;;;;;3.00;2.70;;;21.00;74.30;;;;;;5089968;28;20758;-83
2022/07/27 08:51:15;;;;;;;2.60;2.40;;;21.00;74.00;;;;;;5090081;28;20631;-83
2022/07/27 08:53:42;;;;;;;2.77;2.57;;;21.00;74.80;;;;;;5089549;28;21355;-83
2022/07/27 08:56:09;;;;;;;3.73;2.43;;;20.70;74.60;;;;;;5089359;28;20674;-83
2022/07/27 08:58:36;;;;;;;3.03;2.73;;;21.10;74.60;;;;;;5088420;28;21149;-83
2022/07/27 09:01:03;;;;;;;2.90;2.70;;;20.90;73.90;;;;;;5088618;28;20612;-83
2022/07/27 09:03:45;;;;;;;2.70;2.27;;;21.20;74.80;;;;;;5089354;28;20609;-86
2022/07/27 09:06:13;;;;;;;2.93;2.63;;;21.70;73.20;;;;;;5089770;28;20640;-84
2022/07/27 09:08:40;;;;;;;3.40;2.57;;;21.90;73.20;;;;;;5109755;28;20731;-83
2022/07/27 09:11:14;;;;;;;3.60;3.27;;;21.40;73.40;;;;;;5107857;28;20623;-84
2022/07/27 09:13:41;;;;;;;3.60;2.67;;;21.30;72.40;;;;;;5109168;28;20727;-83
2022/07/27 09:16:10;;;;;;;2.97;2.77;;;21.30;73.40;;;;;;5108468;28;20772;-83
2022/07/27 09:18:38;;;;;;;4.10;2.80;;;21.70;72.10;;;;;;5108530;28;20956;-84
2022/07/27 09:21:16;;;;;;;2.87;2.67;;;21.70;72.70;;;;;;5109078;28;20648;-83
2022/07/27 09:23:44;;;;;;;4.23;3.83;;;21.90;71.00;;;;;;5107236;28;20618;-84
2022/07/27 09:26:14;;;;;;;3.20;2.60;;;22.10;71.10;;;;;;5107338;28;20615;-83
2022/07/27 09:28:42;;;;;;;3.00;2.63;;;22.10;71.10;;;;;;5106675;28;20650;-83
2022/07/27 09:31:10;;;;;;;2.60;2.40;;;22.30;71.30;;;;;;5106839;28;20632;-83
2022/07/27 09:33:45;;;;;;;3.63;3.20;;;22.50;70.70;;;;;;5105581;28;20628;-84
2022/07/27 09:36:14;;;;;;;3.10;2.37;;;22.60;70.50;;;;;;5105854;28;20762;-84
2022/07/27 09:38:51;;;;;;;3.30;3.00;;;23.00;68.70;;;;;;5106786;28;20616;-83
2022/07/27 09:41:19;;;;;;;3.93;3.17;;;23.10;68.00;;;;;;5107611;28;20669;-84
2022/07/27 09:43:48;;;;;;;5.40;2.70;;;22.60;68.90;;;;;;5107704;28;20635;-84
2022/07/27 09:46:15;;;;;;;2.60;2.40;;;22.70;69.00;;;;;;5108015;28;20673;-83
2022/07/27 09:48:42;;;;;;;3.13;2.37;;;22.40;68.50;;;;;;5107681;28;20612;-84
2022/07/27 09:51:11;;;;;;;3.67;3.00;;;22.70;69.10;;;;;;5108014;28;20734;-84
2022/07/27 09:53:39;;;;;;;2.90;2.70;;;23.00;70.00;;;;;;5107533;28;20693;-84
2022/07/27 09:56:08;;;;;;;2.47;2.37;;;22.90;68.50;;;;;;5106886;28;21012;-82
2022/07/27 09:58:43;;;;;;;3.00;2.50;;;22.90;69.00;;;;;;5106358;28;20624;-82
2022/07/27 10:01:12;;;;;;;2.33;2.13;;;22.60;69.10;;;;;;5106193;28;20696;-81
2022/07/27 10:03:40;;;;;;;3.03;2.73;;;22.50;68.90;;;;;;5107177;28;20715;-82
2022/07/27 10:06:09;;;;;;;2.37;2.23;;;22.50;69.50;;;;;;5107893;28;20623;-82
2022/07/27 10:08:37;;;;;;;2.43;2.23;;;22.50;69.40;;;;;;5108525;28;20719;-82
2022/07/27 10:11:06;;;;;;;2.73;2.53;;;22.50;68.80;;;;;;5107469;28;21197;-82
2022/07/27 10:13:33;;;;;;;4.23;2.30;;;22.70;68.70;;;;;;5107683;28;20639;-82
2022/07/27 10:16:01;;;;;;;2.43;2.23;;;22.50;66.60;;;;;;5111472;28;20670;-82
2022/07/27 10:18:43;;;;;;;2.23;2.13;;;22.60;67.60;;;;;;5110697;28;20608;-82
2022/07/27 10:21:11;;;;;;;2.60;2.40;;;22.50;66.40;;;;;;5111747;27;20989;-82
2022/07/27 10:23:38;;;;;;;3.07;2.50;;;22.90;67.10;;;;;;5105419;28;21116;-85
2022/07/27 10:26:30;;;;;;;3.67;3.37;;;23.30;68.30;;;;;;5110135;28;20626;-84
2022/07/27 10:29:04;;;;;;;2.83;2.63;;;23.60;65.50;;;;;;5108394;28;20626;-84
2022/07/27 10:31:36;;;;;;;2.73;2.50;;;23.80;66.40;;;;;;5111047;28;20630;-83
2022/07/27 10:34:05;;;;;;;3.03;2.80;;;24.20;65.20;;;;;;5110576;28;20690;-85
2022/07/27 10:36:50;;;;;;;2.50;2.40;;;24.30;64.20;;;;;;5110186;28;20667;-85
2022/07/27 10:39:28;;;;;;;2.50;2.30;;;24.40;65.50;;;;;;5110624;28;20659;-84
2022/07/27 10:42:18;;;;;;;2.60;2.40;;;24.50;63.40;;;;;;5110923;28;20655;-84
2022/07/27 10:45:10;;;;;;;2.80;2.60;;;24.30;63.40;;;;;;5109366;28;20684;-84
2022/07/27 10:47:40;;;;;;;3.43;2.70;;;24.30;64.10;;;;;;5089260;28;20624;-84
2022/07/27 10:50:29;;;;;;;2.77;2.57;;;23.90;64.60;;;;;;5109863;28;21181;-84
2022/07/27 10:53:00;;;;;;;2.97;2.30;;;23.60;61.90;;;;;;5109707;28;20628;-84
2022/07/27 10:55:47;;;;;;;3.20;2.93;;;23.20;62.90;;;;;;5109019;28;20663;-84
2022/07/27 10:58:47;;;;;;;1.90;1.80;;;23.90;62.70;;;;;;5111382;28;21222;-84
2022/07/27 11:01:16;;;;;;;2.20;2.07;;;24.30;61.40;;;;;;5110565;28;20633;-84
2022/07/27 11:03:51;;;;;;;3.17;2.87;;;24.80;60.90;;;;;;5106108;28;20608;-83
2022/07/27 11:06:23;;;;;;;2.63;2.43;;;25.30;59.50;;;;;;5110579;28;21200;-83
2022/07/27 11:08:51;;;;;;;2.73;2.53;;;25.80;59.80;;;;;;5111019;28;20708;-83
2022/07/27 11:11:19;;;;;;;2.90;2.70;;;26.10;58.20;;;;;;5109756;28;20631;-83
2022/07/27 11:13:50;;;;;;;2.63;2.43;;;26.30;57.80;;;;;;5109496;28;21243;-83
2022/07/27 11:16:18;;;;;;;2.07;1.97;;;26.70;58.90;;;;;;5110377;28;20690;-83
2022/07/27 11:18:52;;;;;;;2.60;2.40;;;26.90;56.20;;;;;;5110378;28;20620;-83
2022/07/27 11:21:21;;;;;;;2.30;2.20;;;26.70;57.30;;;;;;5109358;28;20728;-83
2022/07/27 11:23:50;;;;;;;2.63;2.43;;;26.70;55.80;;;;;;5108801;28;20703;-83
2022/07/27 11:26:17;;;;;;;2.57;2.37;;;26.30;56.60;;;;;;5109760;28;20924;-83
2022/07/27 11:28:44;;;;;;;2.10;1.83;;;26.10;56.60;;;;;;5109101;28;20623;-84
2022/07/27 11:31:13;;;;;;;2.27;2.07;;;26.10;54.60;;;;;;5110081;28;20619;-83
2022/07/27 11:33:51;;;;;;;2.10;2.00;;;25.80;55.70;;;;;;5094907;28;20624;-83
2022/07/27 11:36:18;;;;;;;1.70;1.60;;;25.70;55.10;;;;;;5109022;28;20673;-83
2022/07/27 11:38:46;;;;;;;2.00;1.90;;;25.50;56.00;;;;;;5106215;28;20624;-83
2022/07/27 11:41:23;;;;;;;2.13;2.03;;;25.00;55.60;;;;;;5107857;28;20626;-83
2022/07/27 11:43:50;;;;;;;2.20;2.10;;;24.70;57.50;;;;;;5106695;28;20612;-83
2022/07/27 11:46:22;;;;;;;2.07;1.97;;;25.20;57.80;;;;;;5109898;28;20705;-83
2022/07/27 11:48:55;;;;;;;1.60;1.50;;;25.60;57.30;;;;;;5108051;28;20711;-83
2022/07/27 11:51:23;;;;;;;1.93;1.80;;;25.80;57.20;;;;;;5108845;28;20672;-84
2022/07/27 11:53:57;;;;;;;1.70;1.60;;;25.90;54.90;;;;;;5107931;28;20608;-83
2022/07/27 11:56:25;;;;;;;2.17;1.90;;;26.00;54.50;;;;;;5108787;28;20690;-82
2022/07/27 11:59:14;;;;;;;2.23;2.10;;;25.30;53.50;;;;;;5098981;28;20626;-82
2022/07/27 12:01:45;;;;;;;1.90;1.80;;;26.00;55.10;;;;;;5102503;28;20734;-83
2022/07/27 12:04:24;;;;;;;1.77;1.67;;;27.30;53.30;;;;;;5107296;28;20672;-84
2022/07/27 12:07:06;;;;;;;1.60;1.50;;;28.90;50.40;;;;;;5108552;28;20715;-83
2022/07/27 12:09:36;;;;;;;1.63;1.53;;;28.50;51.00;;;;;;5107888;28;20624;-84
2022/07/27 12:12:15;;;;;;;2.33;2.17;;;29.50;50.20;;;;;;5108889;28;21200;-84
2022/07/27 12:14:45;;;;;;;1.57;1.47;;;30.60;50.30;;;;;;5109149;28;21169;-83
2022/07/27 12:17:17;;;;;;;2.10;1.80;;;31.10;48.10;;;;;;5109049;28;20691;-83
2022/07/27 12:19:52;;;;;;;2.10;2.00;;;31.80;47.20;;;;;;5108576;28;20623;-83
2022/07/27 12:22:28;;;;;;;1.80;1.70;;;31.20;46.10;;;;;;5107887;28;20676;-83
2022/07/27 12:24:55;;;;;;;1.87;1.77;;;28.80;46.80;;;;;;5107327;28;20647;-84
2022/07/27 12:27:25;;;;;;;1.97;1.87;;;29.60;48.70;;;;;;5108031;28;20688;-83
2022/07/27 12:30:08;;;;;;;2.27;1.83;;;28.80;48.20;;;;;;5108079;28;21206;-82
2022/07/27 12:32:39;;;;;;;1.80;1.70;;;27.80;49.90;;;;;;5107150;28;21181;-83
2022/07/27 12:35:19;;;;;;;1.93;1.80;;;27.30;51.50;;;;;;5107496;28;20620;-83
2022/07/27 12:37:46;;;;;;;2.60;2.40;;;27.00;51.90;;;;;;5108241;28;20668;-82
2022/07/27 12:40:18;;;;;;;2.10;1.90;;;26.90;51.60;;;;;;5108563;28;20652;-82
2022/07/27 12:42:45;;;;;;;1.33;1.33;;;26.20;51.60;;;;;;5103359;28;21093;-82
2022/07/27 12:45:16;;;;;;;1.70;1.60;;;27.70;49.90;;;;;;5107873;28;21249;-82
2022/07/27 12:47:45;;;;;;;1.70;1.60;;;27.90;50.30;;;;;;5107817;28;20628;-82
2022/07/27 12:50:14;;;;;;;1.77;1.67;;;29.00;49.20;;;;;;5108021;28;20744;-82
2022/07/27 12:52:45;;;;;;;1.37;1.30;;;29.40;47.60;;;;;;5107323;28;21154;-83
2022/07/27 12:55:14;;;;;;;1.30;1.30;;;30.40;48.10;;;;;;5106876;28;20622;-83
2022/07/27 12:57:41;;;;;;;1.60;1.50;;;31.70;44.20;;;;;;5107862;28;21016;-80
2022/07/27 13:00:10;;;;;;;1.70;1.60;;;32.10;43.00;;;;;;5105271;28;20646;-80